sensor_id;sensor_type;location;lat;lon;timestamp;P1;durP1;ratioP1;P2;durP2;ratioP2
22814;SDS011;11574;51.058;13.712;2024-03-22T00:00:36;8.97;;;5.60;;
22814;SDS011;11574;51.058;13.712;2024-03-22T00:05:39;12.20;;;6.33;;
22814;SDS011;11574;51.058;13.712;2024-03-22T00:10:40;14.03;;;7.37;;
22814;SDS011;11574;51.058;13.712;2024-03-22T00:15:42;14.53;;;7.53;;
22814;SDS011;11574;51.058;13.712;2024-03-22T00:20:46;10.93;;;6.17;;
22814;SDS011;11574;51.058;13.712;2024-03-22T00:25:47;15.83;;;8.70;;
22814;SDS011;11574;51.058;13.712;2024-03-22T00:30:49;18.60;;;9.80;;
22814;SDS011;11574;51.058;13.712;2024-03-22T00:35:52;29.97;;;14.83;;
22814;SDS011;11574;51.058;13.712;2024-03-22T00:40:53;21.07;;;11.70;;
22814;SDS011;11574;51.058;13.712;2024-03-22T00:45:55;23.13;;;10.00;;
22814;SDS011;11574;51.058;13.712;2024-03-22T00:50:58;18.17;;;10.57;;
22814;SDS011;11574;51.058;13.712;2024-03-22T00:56:00;16.83;;;9.47;;
22814;SDS011;11574;51.058;13.712;2024-03-22T01:01:01;14.77;;;7.67;;
22814;SDS011;11574;51.058;13.712;2024-03-22T01:06:05;11.53;;;6.93;;
22814;SDS011;11574;51.058;13.712;2024-03-22T01:11:07;12.97;;;7.57;;
22814;SDS011;11574;51.058;13.712;2024-03-22T01:16:09;14.37;;;7.47;;
22814;SDS011;11574;51.058;13.712;2024-03-22T01:21:12;11.57;;;6.97;;
22814;SDS011;11574;51.058;13.712;2024-03-22T01:26:13;16.60;;;8.30;;
22814;SDS011;11574;51.058;13.712;2024-03-22T01:31:15;12.13;;;7.57;;
22814;SDS011;11574;51.058;13.712;2024-03-22T01:36:18;13.17;;;7.07;;
22814;SDS011;11574;51.058;13.712;2024-03-22T01:41:20;11.70;;;6.50;;
22814;SDS011;11574;51.058;13.712;2024-03-22T01:46:22;14.53;;;7.13;;
22814;SDS011;11574;51.058;13.712;2024-03-22T01:51:25;11.93;;;6.77;;
22814;SDS011;11574;51.058;13.712;2024-03-22T01:56:26;13.03;;;7.63;;
22814;SDS011;11574;51.058;13.712;2024-03-22T02:01:28;12.97;;;7.07;;
22814;SDS011;11574;51.058;13.712;2024-03-22T02:06:31;14.60;;;7.80;;
22814;SDS011;11574;51.058;13.712;2024-03-22T02:11:32;11.30;;;7.20;;
22814;SDS011;11574;51.058;13.712;2024-03-22T02:16:34;14.13;;;6.73;;
22814;SDS011;11574;51.058;13.712;2024-03-22T02:21:37;12.53;;;7.93;;
22814;SDS011;11574;51.058;13.712;2024-03-22T02:26:40;13.73;;;7.67;;
22814;SDS011;11574;51.058;13.712;2024-03-22T02:31:41;13.43;;;7.90;;
22814;SDS011;11574;51.058;13.712;2024-03-22T02:36:43;12.77;;;7.90;;
22814;SDS011;11574;51.058;13.712;2024-03-22T02:41:46;14.87;;;8.30;;
22814;SDS011;11574;51.058;13.712;2024-03-22T02:46:48;15.20;;;8.40;;
22814;SDS011;11574;51.058;13.712;2024-03-22T02:51:49;17.37;;;8.80;;
22814;SDS011;11574;51.058;13.712;2024-03-22T02:56:52;15.80;;;8.53;;
22814;SDS011;11574;51.058;13.712;2024-03-22T03:01:54;19.80;;;8.13;;
22814;SDS011;11574;51.058;13.712;2024-03-22T03:06:55;15.80;;;8.70;;
22814;SDS011;11574;51.058;13.712;2024-03-22T03:11:59;13.10;;;8.63;;
22814;SDS011;11574;51.058;13.712;2024-03-22T03:17:00;15.90;;;8.83;;
22814;SDS011;11574;51.058;13.712;2024-03-22T03:22:02;17.00;;;8.73;;
22814;SDS011;11574;51.058;13.712;2024-03-22T03:27:05;23.90;;;9.63;;
22814;SDS011;11574;51.058;13.712;2024-03-22T03:32:07;15.33;;;8.23;;
22814;SDS011;11574;51.058;13.712;2024-03-22T03:37:09;19.23;;;8.83;;
22814;SDS011;11574;51.058;13.712;2024-03-22T03:42:12;14.20;;;7.40;;
22814;SDS011;11574;51.058;13.712;2024-03-22T03:47:13;17.40;;;9.40;;
22814;SDS011;11574;51.058;13.712;2024-03-22T03:52:15;18.03;;;9.90;;
22814;SDS011;11574;51.058;13.712;2024-03-22T03:57:18;15.77;;;9.87;;
22814;SDS011;11574;51.058;13.712;2024-03-22T04:02:20;18.10;;;10.20;;
22814;SDS011;11574;51.058;13.712;2024-03-22T04:07:21;15.27;;;8.37;;
22814;SDS011;11574;51.058;13.712;2024-03-22T04:12:24;14.97;;;9.20;;
22814;SDS011;11574;51.058;13.712;2024-03-22T04:17:26;18.77;;;9.33;;
22814;SDS011;11574;51.058;13.712;2024-03-22T04:22:27;20.90;;;9.00;;
22814;SDS011;11574;51.058;13.712;2024-03-22T04:27:30;16.37;;;9.33;;
22814;SDS011;11574;51.058;13.712;2024-03-22T04:32:32;14.40;;;8.47;;
22814;SDS011;11574;51.058;13.712;2024-03-22T04:37:33;15.13;;;7.47;;
22814;SDS011;11574;51.058;13.712;2024-03-22T04:42:36;16.50;;;9.00;;
22814;SDS011;11574;51.058;13.712;2024-03-22T04:47:38;17.83;;;8.90;;
22814;SDS011;11574;51.058;13.712;2024-03-22T04:52:41;16.63;;;8.23;;
22814;SDS011;11574;51.058;13.712;2024-03-22T04:57:44;14.07;;;8.33;;
22814;SDS011;11574;51.058;13.712;2024-03-22T05:02:45;15.40;;;9.07;;
22814;SDS011;11574;51.058;13.712;2024-03-22T05:07:48;13.33;;;8.27;;
22814;SDS011;11574;51.058;13.712;2024-03-22T05:12:51;16.83;;;8.50;;
22814;SDS011;11574;51.058;13.712;2024-03-22T05:17:52;19.90;;;9.53;;
22814;SDS011;11574;51.058;13.712;2024-03-22T05:22:54;15.13;;;8.67;;
22814;SDS011;11574;51.058;13.712;2024-03-22T05:27:57;13.97;;;8.27;;
22814;SDS011;11574;51.058;13.712;2024-03-22T05:32:59;15.67;;;7.53;;
22814;SDS011;11574;51.058;13.712;2024-03-22T05:38:00;16.33;;;7.53;;
22814;SDS011;11574;51.058;13.712;2024-03-22T05:43:03;11.53;;;6.90;;
22814;SDS011;11574;51.058;13.712;2024-03-22T05:48:05;10.90;;;6.50;;
22814;SDS011;11574;51.058;13.712;2024-03-22T05:53:07;10.77;;;6.00;;
22814;SDS011;11574;51.058;13.712;2024-03-22T05:58:10;13.13;;;6.47;;
22814;SDS011;11574;51.058;13.712;2024-03-22T06:03:12;10.00;;;5.17;;
22814;SDS011;11574;51.058;13.712;2024-03-22T06:08:13;11.67;;;6.30;;
22814;SDS011;11574;51.058;13.712;2024-03-22T06:13:20;11.10;;;5.63;;
22814;SDS011;11574;51.058;13.712;2024-03-22T06:18:22;14.20;;;5.40;;
22814;SDS011;11574;51.058;13.712;2024-03-22T06:23:23;7.97;;;4.63;;
22814;SDS011;11574;51.058;13.712;2024-03-22T06:28:27;8.50;;;5.03;;
22814;SDS011;11574;51.058;13.712;2024-03-22T06:33:29;9.70;;;5.33;;
22814;SDS011;11574;51.058;13.712;2024-03-22T06:38:30;9.53;;;4.70;;
22814;SDS011;11574;51.058;13.712;2024-03-22T06:43:33;7.90;;;4.40;;
22814;SDS011;11574;51.058;13.712;2024-03-22T06:48:35;9.73;;;4.70;;
22814;SDS011;11574;51.058;13.712;2024-03-22T06:53:37;14.20;;;5.30;;
22814;SDS011;11574;51.058;13.712;2024-03-22T06:58:40;11.13;;;4.60;;
22814;SDS011;11574;51.058;13.712;2024-03-22T07:03:41;10.80;;;4.40;;
22814;SDS011;11574;51.058;13.712;2024-03-22T07:08:45;9.53;;;4.63;;
22814;SDS011;11574;51.058;13.712;2024-03-22T07:13:49;11.40;;;4.87;;
22814;SDS011;11574;51.058;13.712;2024-03-22T07:18:50;9.60;;;5.03;;
22814;SDS011;11574;51.058;13.712;2024-03-22T07:23:52;9.43;;;4.80;;
22814;SDS011;11574;51.058;13.712;2024-03-22T07:28:55;12.83;;;4.57;;
22814;SDS011;11574;51.058;13.712;2024-03-22T07:33:56;7.63;;;4.70;;
22814;SDS011;11574;51.058;13.712;2024-03-22T07:38:58;7.60;;;4.43;;
22814;SDS011;11574;51.058;13.712;2024-03-22T07:44:02;11.00;;;5.07;;
22814;SDS011;11574;51.058;13.712;2024-03-22T07:49:05;10.77;;;5.30;;
22814;SDS011;11574;51.058;13.712;2024-03-22T07:54:07;11.83;;;5.10;;
22814;SDS011;11574;51.058;13.712;2024-03-22T07:59:10;12.07;;;5.73;;
22814;SDS011;11574;51.058;13.712;2024-03-22T08:04:11;12.03;;;6.53;;
22814;SDS011;11574;51.058;13.712;2024-03-22T08:09:13;11.17;;;6.00;;
22814;SDS011;11574;51.058;13.712;2024-03-22T08:14:16;14.13;;;7.30;;
22814;SDS011;11574;51.058;13.712;2024-03-22T08:19:18;13.23;;;7.23;;
22814;SDS011;11574;51.058;13.712;2024-03-22T08:24:19;16.53;;;7.97;;
22814;SDS011;11574;51.058;13.712;2024-03-22T08:29:22;14.03;;;7.60;;
22814;SDS011;11574;51.058;13.712;2024-03-22T08:34:24;16.23;;;8.20;;
22814;SDS011;11574;51.058;13.712;2024-03-22T08:39:25;16.27;;;7.13;;
22814;SDS011;11574;51.058;13.712;2024-03-22T08:44:28;15.50;;;7.23;;
22814;SDS011;11574;51.058;13.712;2024-03-22T08:49:30;13.70;;;6.97;;
22814;SDS011;11574;51.058;13.712;2024-03-22T08:54:31;14.57;;;6.70;;
22814;SDS011;11574;51.058;13.712;2024-03-22T08:59:35;10.47;;;6.07;;
22814;SDS011;11574;51.058;13.712;2024-03-22T09:04:38;10.83;;;5.40;;
22814;SDS011;11574;51.058;13.712;2024-03-22T09:09:40;11.23;;;5.83;;
22814;SDS011;11574;51.058;13.712;2024-03-22T09:14:43;13.37;;;5.93;;
22814;SDS011;11574;51.058;13.712;2024-03-22T09:19:45;11.53;;;5.50;;
22814;SDS011;11574;51.058;13.712;2024-03-22T09:24:46;11.93;;;5.90;;
22814;SDS011;11574;51.058;13.712;2024-03-22T09:29:50;11.80;;;5.17;;
22814;SDS011;11574;51.058;13.712;2024-03-22T09:34:53;13.47;;;5.90;;
22814;SDS011;11574;51.058;13.712;2024-03-22T09:39:54;11.33;;;5.20;;
22814;SDS011;11574;51.058;13.712;2024-03-22T09:44:57;7.40;;;4.53;;
22814;SDS011;11574;51.058;13.712;2024-03-22T09:49:59;10.40;;;4.70;;
22814;SDS011;11574;51.058;13.712;2024-03-22T09:55:02;6.67;;;4.40;;
22814;SDS011;11574;51.058;13.712;2024-03-22T10:00:08;8.77;;;4.33;;
22814;SDS011;11574;51.058;13.712;2024-03-22T10:05:13;7.77;;;4.37;;
22814;SDS011;11574;51.058;13.712;2024-03-22T10:10:15;7.80;;;4.53;;
22814;SDS011;11574;51.058;13.712;2024-03-22T10:15:18;11.93;;;6.00;;
22814;SDS011;11574;51.058;13.712;2024-03-22T10:20:20;7.67;;;4.10;;
22814;SDS011;11574;51.058;13.712;2024-03-22T10:25:22;9.30;;;4.80;;
22814;SDS011;11574;51.058;13.712;2024-03-22T10:30:25;10.73;;;4.37;;
22814;SDS011;11574;51.058;13.712;2024-03-22T10:35:27;7.23;;;3.90;;
22814;SDS011;11574;51.058;13.712;2024-03-22T10:40:29;9.00;;;3.93;;
22814;SDS011;11574;51.058;13.712;2024-03-22T10:45:32;5.77;;;3.43;;
22814;SDS011;11574;51.058;13.712;2024-03-22T10:50:33;6.13;;;3.90;;
22814;SDS011;11574;51.058;13.712;2024-03-22T10:55:36;5.50;;;3.43;;
22814;SDS011;11574;51.058;13.712;2024-03-22T11:00:41;7.50;;;3.97;;
22814;SDS011;11574;51.058;13.712;2024-03-22T11:05:46;5.93;;;3.60;;
22814;SDS011;11574;51.058;13.712;2024-03-22T11:10:48;8.70;;;4.10;;
22814;SDS011;11574;51.058;13.712;2024-03-22T11:15:51;10.93;;;6.20;;
22814;SDS011;11574;51.058;13.712;2024-03-22T11:20:53;8.07;;;4.40;;
22814;SDS011;11574;51.058;13.712;2024-03-22T11:25:55;7.17;;;3.67;;
22814;SDS011;11574;51.058;13.712;2024-03-22T11:30:59;10.23;;;3.90;;
22814;SDS011;11574;51.058;13.712;2024-03-22T11:36:01;8.83;;;3.90;;
22814;SDS011;11574;51.058;13.712;2024-03-22T11:41:04;7.73;;;3.43;;
22814;SDS011;11574;51.058;13.712;2024-03-22T11:46:07;7.97;;;4.47;;
22814;SDS011;11574;51.058;13.712;2024-03-22T11:51:09;8.37;;;4.10;;
22814;SDS011;11574;51.058;13.712;2024-03-22T11:56:11;7.73;;;3.63;;
22814;SDS011;11574;51.058;13.712;2024-03-22T12:01:14;7.80;;;4.40;;
22814;SDS011;11574;51.058;13.712;2024-03-22T12:06:16;7.47;;;3.97;;
22814;SDS011;11574;51.058;13.712;2024-03-22T12:11:17;5.37;;;3.87;;
22814;SDS011;11574;51.058;13.712;2024-03-22T12:16:21;6.80;;;4.00;;
22814;SDS011;11574;51.058;13.712;2024-03-22T12:21:22;7.43;;;3.97;;
22814;SDS011;11574;51.058;13.712;2024-03-22T12:26:24;7.97;;;4.03;;
22814;SDS011;11574;51.058;13.712;2024-03-22T12:31:27;6.80;;;4.23;;
22814;SDS011;11574;51.058;13.712;2024-03-22T12:36:29;8.33;;;4.60;;
22814;SDS011;11574;51.058;13.712;2024-03-22T12:41:30;11.27;;;4.70;;
22814;SDS011;11574;51.058;13.712;2024-03-22T12:46:34;10.57;;;4.93;;
22814;SDS011;11574;51.058;13.712;2024-03-22T12:51:36;9.30;;;4.63;;
22814;SDS011;11574;51.058;13.712;2024-03-22T12:56:38;11.13;;;6.03;;
22814;SDS011;11574;51.058;13.712;2024-03-22T13:01:41;9.47;;;5.03;;
22814;SDS011;11574;51.058;13.712;2024-03-22T13:06:44;10.80;;;4.73;;
22814;SDS011;11574;51.058;13.712;2024-03-22T13:11:48;11.40;;;5.90;;
22814;SDS011;11574;51.058;13.712;2024-03-22T13:16:52;10.27;;;5.00;;
22814;SDS011;11574;51.058;13.712;2024-03-22T13:21:54;10.97;;;5.10;;
22814;SDS011;11574;51.058;13.712;2024-03-22T13:26:55;9.17;;;5.20;;
22814;SDS011;11574;51.058;13.712;2024-03-22T13:31:58;9.37;;;5.00;;
22814;SDS011;11574;51.058;13.712;2024-03-22T13:37:00;9.23;;;5.20;;
22814;SDS011;11574;51.058;13.712;2024-03-22T13:42:02;7.57;;;4.60;;
22814;SDS011;11574;51.058;13.712;2024-03-22T13:47:05;8.43;;;4.93;;
22814;SDS011;11574;51.058;13.712;2024-03-22T13:52:08;9.20;;;5.53;;
22814;SDS011;11574;51.058;13.712;2024-03-22T13:57:10;10.00;;;5.23;;
22814;SDS011;11574;51.058;13.712;2024-03-22T14:02:14;12.03;;;5.40;;
22814;SDS011;11574;51.058;13.712;2024-03-22T14:07:16;8.23;;;4.87;;
22814;SDS011;11574;51.058;13.712;2024-03-22T14:12:18;8.67;;;4.93;;
22814;SDS011;11574;51.058;13.712;2024-03-22T14:17:21;9.17;;;5.30;;
22814;SDS011;11574;51.058;13.712;2024-03-22T14:22:23;12.33;;;5.37;;
22814;SDS011;11574;51.058;13.712;2024-03-22T14:27:24;12.43;;;5.43;;
22814;SDS011;11574;51.058;13.712;2024-03-22T14:32:27;16.37;;;6.40;;
22814;SDS011;11574;51.058;13.712;2024-03-22T14:37:29;12.30;;;5.00;;
22814;SDS011;11574;51.058;13.712;2024-03-22T14:42:31;12.83;;;6.03;;
22814;SDS011;11574;51.058;13.712;2024-03-22T14:47:34;9.57;;;5.33;;
22814;SDS011;11574;51.058;13.712;2024-03-22T14:52:36;9.20;;;5.73;;
22814;SDS011;11574;51.058;13.712;2024-03-22T14:57:39;11.07;;;5.40;;
22814;SDS011;11574;51.058;13.712;2024-03-22T15:02:42;12.17;;;6.00;;
22814;SDS011;11574;51.058;13.712;2024-03-22T15:07:44;10.13;;;5.53;;
22814;SDS011;11574;51.058;13.712;2024-03-22T15:12:46;11.43;;;5.77;;
22814;SDS011;11574;51.058;13.712;2024-03-22T15:17:50;8.23;;;4.87;;
22814;SDS011;11574;51.058;13.712;2024-03-22T15:22:52;13.40;;;5.80;;
22814;SDS011;11574;51.058;13.712;2024-03-22T15:27:54;10.53;;;5.20;;
22814;SDS011;11574;51.058;13.712;2024-03-22T15:32:57;13.70;;;5.57;;
22814;SDS011;11574;51.058;13.712;2024-03-22T15:37:59;10.10;;;6.37;;
22814;SDS011;11574;51.058;13.712;2024-03-22T15:43:03;10.97;;;6.30;;
22814;SDS011;11574;51.058;13.712;2024-03-22T15:48:10;16.90;;;7.60;;
22814;SDS011;11574;51.058;13.712;2024-03-22T15:53:12;11.00;;;6.77;;
22814;SDS011;11574;51.058;13.712;2024-03-22T15:58:14;14.20;;;7.17;;
22814;SDS011;11574;51.058;13.712;2024-03-22T16:03:17;10.70;;;6.80;;
22814;SDS011;11574;51.058;13.712;2024-03-22T16:08:19;12.37;;;7.27;;
22814;SDS011;11574;51.058;13.712;2024-03-22T16:13:21;11.50;;;6.80;;
22814;SDS011;11574;51.058;13.712;2024-03-22T16:18:25;12.10;;;7.60;;
22814;SDS011;11574;51.058;13.712;2024-03-22T16:23:26;14.53;;;7.70;;
22814;SDS011;11574;51.058;13.712;2024-03-22T16:28:28;11.47;;;6.47;;
22814;SDS011;11574;51.058;13.712;2024-03-22T16:33:32;10.97;;;6.67;;
22814;SDS011;11574;51.058;13.712;2024-03-22T16:38:35;14.10;;;7.87;;
22814;SDS011;11574;51.058;13.712;2024-03-22T16:43:37;12.60;;;6.90;;
22814;SDS011;11574;51.058;13.712;2024-03-22T16:48:40;16.53;;;7.47;;
22814;SDS011;11574;51.058;13.712;2024-03-22T16:53:41;14.93;;;8.03;;
22814;SDS011;11574;51.058;13.712;2024-03-22T16:58:43;18.57;;;10.00;;
22814;SDS011;11574;51.058;13.712;2024-03-22T17:03:46;17.93;;;8.80;;
22814;SDS011;11574;51.058;13.712;2024-03-22T17:08:49;15.40;;;8.20;;
22814;SDS011;11574;51.058;13.712;2024-03-22T17:13:50;18.37;;;8.67;;
22814;SDS011;11574;51.058;13.712;2024-03-22T17:18:53;14.37;;;8.33;;
22814;SDS011;11574;51.058;13.712;2024-03-22T17:23:55;14.40;;;8.87;;
22814;SDS011;11574;51.058;13.712;2024-03-22T17:28:57;14.80;;;8.17;;
22814;SDS011;11574;51.058;13.712;2024-03-22T17:34:00;15.73;;;8.43;;
22814;SDS011;11574;51.058;13.712;2024-03-22T17:39:02;15.80;;;8.80;;
22814;SDS011;11574;51.058;13.712;2024-03-22T17:44:04;14.70;;;8.17;;
22814;SDS011;11574;51.058;13.712;2024-03-22T17:49:07;12.97;;;8.23;;
22814;SDS011;11574;51.058;13.712;2024-03-22T17:54:09;16.57;;;8.70;;
22814;SDS011;11574;51.058;13.712;2024-03-22T17:59:11;16.57;;;8.73;;
22814;SDS011;11574;51.058;13.712;2024-03-22T18:04:14;18.83;;;8.37;;
22814;SDS011;11574;51.058;13.712;2024-03-22T18:09:16;18.33;;;8.40;;
22814;SDS011;11574;51.058;13.712;2024-03-22T18:14:17;15.43;;;8.77;;
22814;SDS011;11574;51.058;13.712;2024-03-22T18:19:21;16.00;;;8.30;;
22814;SDS011;11574;51.058;13.712;2024-03-22T18:24:22;13.63;;;8.80;;
22814;SDS011;11574;51.058;13.712;2024-03-22T18:29:24;15.63;;;8.90;;
22814;SDS011;11574;51.058;13.712;2024-03-22T18:34:27;16.97;;;9.17;;
22814;SDS011;11574;51.058;13.712;2024-03-22T18:39:29;17.00;;;10.03;;
22814;SDS011;11574;51.058;13.712;2024-03-22T18:44:30;12.67;;;8.53;;
22814;SDS011;11574;51.058;13.712;2024-03-22T18:49:36;16.13;;;9.77;;
22814;SDS011;11574;51.058;13.712;2024-03-22T18:54:38;15.13;;;9.30;;
22814;SDS011;11574;51.058;13.712;2024-03-22T18:59:39;16.07;;;9.03;;
22814;SDS011;11574;51.058;13.712;2024-03-22T19:04:43;17.77;;;9.60;;
22814;SDS011;11574;51.058;13.712;2024-03-22T19:09:44;20.83;;;9.93;;
22814;SDS011;11574;51.058;13.712;2024-03-22T19:14:46;16.40;;;9.40;;
22814;SDS011;11574;51.058;13.712;2024-03-22T19:19:49;15.13;;;9.97;;
22814;SDS011;11574;51.058;13.712;2024-03-22T19:24:51;16.43;;;9.90;;
22814;SDS011;11574;51.058;13.712;2024-03-22T19:29:52;18.80;;;10.67;;
22814;SDS011;11574;51.058;13.712;2024-03-22T19:34:55;17.87;;;10.40;;
22814;SDS011;11574;51.058;13.712;2024-03-22T19:39:57;19.40;;;9.50;;
22814;SDS011;11574;51.058;13.712;2024-03-22T19:44:59;15.90;;;9.50;;
22814;SDS011;11574;51.058;13.712;2024-03-22T19:50:02;18.83;;;9.83;;
22814;SDS011;11574;51.058;13.712;2024-03-22T19:55:05;18.80;;;10.17;;
22814;SDS011;11574;51.058;13.712;2024-03-22T20:00:07;15.50;;;9.67;;
22814;SDS011;11574;51.058;13.712;2024-03-22T20:05:15;16.83;;;9.97;;
22814;SDS011;11574;51.058;13.712;2024-03-22T20:10:20;18.90;;;10.13;;
22814;SDS011;11574;51.058;13.712;2024-03-22T20:15:25;18.63;;;9.67;;
22814;SDS011;11574;51.058;13.712;2024-03-22T20:20:29;15.60;;;9.33;;
22814;SDS011;11574;51.058;13.712;2024-03-22T20:25:32;17.57;;;10.30;;
22814;SDS011;11574;51.058;13.712;2024-03-22T20:30:35;19.33;;;11.07;;
22814;SDS011;11574;51.058;13.712;2024-03-22T20:35:38;19.17;;;11.17;;
